createdAt,value
2023-05-17T00:01:20.003Z,12.33
2023-05-17T00:03:47.998Z,12.36
2023-05-17T00:06:16.092Z,12.37
2023-05-17T00:08:44.077Z,12.43
2023-05-17T00:11:12.086Z,12.38
2023-05-17T00:13:41.169Z,12.36
2023-05-17T00:16:09.830Z,12.16
2023-05-17T00:18:39.349Z,12.18
2023-05-17T00:21:07.536Z,12.08
2023-05-17T00:23:35.588Z,11.97
2023-05-17T00:26:03.581Z,11.91
2023-05-17T00:28:31.612Z,12.04
2023-05-17T00:30:59.569Z,12.10
2023-05-17T00:33:27.531Z,12.08
2023-05-17T00:35:56.816Z,12.21
2023-05-17T00:38:24.832Z,12.01
2023-05-17T00:40:54.094Z,12.12
2023-05-17T00:43:22.293Z,11.93
2023-05-17T00:45:51.782Z,12.04
2023-05-17T00:48:21.323Z,12.07
2023-05-17T00:50:50.195Z,12.14
2023-05-17T00:53:20.048Z,11.89
2023-05-17T00:55:48.199Z,12.05
2023-05-17T00:58:16.522Z,11.86
2023-05-17T01:00:45.748Z,12.01
2023-05-17T01:03:13.951Z,11.93
2023-05-17T01:05:42.024Z,12.00
2023-05-17T01:08:10.051Z,11.87
2023-05-17T01:10:45.443Z,11.88
2023-05-17T01:13:19.624Z,11.87
2023-05-17T01:15:54.461Z,12.00
2023-05-17T01:18:29.490Z,11.88
2023-05-17T01:20:59.993Z,11.68
2023-05-17T01:23:46.680Z,11.77
2023-05-17T01:26:20.669Z,11.87
2023-05-17T01:28:54.289Z,11.62
2023-05-17T01:31:24.400Z,11.56
2023-05-17T01:33:52.423Z,11.61
2023-05-17T01:36:20.682Z,11.61
2023-05-17T01:38:48.583Z,11.62
2023-05-17T01:41:19.311Z,11.63
2023-05-17T01:43:52.493Z,11.67
2023-05-17T01:46:27.441Z,11.73
2023-05-17T01:49:07.502Z,11.73
2023-05-17T01:51:45.788Z,11.52
2023-05-17T01:54:15.947Z,11.55
2023-05-17T01:56:49.072Z,11.46
2023-05-17T01:59:24.245Z,11.61
2023-05-17T02:01:55.045Z,11.50
2023-05-17T02:04:23.147Z,11.51
2023-05-17T02:06:51.077Z,11.65
2023-05-17T02:09:19.019Z,11.55
2023-05-17T02:11:46.953Z,11.61
2023-05-17T02:14:15.610Z,11.35
2023-05-17T02:16:44.895Z,11.49
2023-05-17T02:19:14.282Z,11.42
2023-05-17T02:21:42.315Z,11.38
2023-05-17T02:24:10.285Z,11.45
2023-05-17T02:26:42.888Z,11.68
2023-05-17T02:29:11.141Z,11.46
2023-05-17T02:31:39.216Z,11.53
2023-05-17T02:34:08.545Z,11.56
2023-05-17T02:36:36.501Z,11.48
2023-05-17T02:39:04.492Z,11.71
2023-05-17T02:41:32.947Z,11.72
2023-05-17T02:44:01.123Z,11.67
2023-05-17T02:46:29.173Z,11.57
2023-05-17T02:48:57.025Z,11.74
2023-05-17T02:51:26.901Z,11.72
2023-05-17T02:53:54.869Z,11.76
2023-05-17T02:56:23.222Z,11.79
2023-05-17T02:58:51.193Z,11.89
2023-05-17T03:01:19.171Z,11.93
2023-05-17T03:03:47.691Z,11.77
2023-05-17T03:06:16.044Z,11.65
2023-05-17T03:08:46.005Z,11.80
2023-05-17T03:11:14.413Z,11.80
2023-05-17T03:13:42.308Z,11.68
2023-05-17T03:16:10.431Z,11.84
2023-05-17T03:18:38.500Z,11.90
2023-05-17T03:21:06.533Z,11.95
2023-05-17T03:23:35.007Z,11.88
2023-05-17T03:26:05.765Z,11.93
2023-05-17T03:28:40.410Z,11.80
2023-05-17T03:31:08.639Z,11.52
2023-05-17T03:33:36.814Z,11.61
2023-05-17T03:36:06.424Z,11.65
2023-05-17T03:38:34.420Z,11.44
2023-05-17T03:41:02.527Z,11.57
2023-05-17T03:43:31.930Z,11.74
2023-05-17T03:46:01.474Z,11.68
2023-05-17T03:48:30.526Z,11.77
2023-05-17T03:50:59.371Z,11.79
2023-05-17T03:53:28.784Z,11.73
2023-05-17T03:55:56.833Z,11.80
2023-05-17T03:58:24.942Z,11.57
2023-05-17T04:00:54.537Z,11.49
2023-05-17T04:03:22.446Z,11.62
2023-05-17T04:05:50.921Z,11.60
2023-05-17T04:08:19.125Z,11.63
2023-05-17T04:10:47.173Z,11.70
2023-05-17T04:13:15.238Z,11.82
2023-05-17T04:15:43.157Z,11.80
2023-05-17T04:18:12.633Z,11.80
2023-05-17T04:20:40.877Z,11.93
2023-05-17T04:23:09.860Z,11.74
2023-05-17T04:25:37.948Z,11.89
2023-05-17T04:28:05.939Z,12.02
2023-05-17T04:30:34.239Z,11.88
2023-05-17T04:33:02.738Z,11.97
2023-05-17T04:35:32.098Z,12.01
2023-05-17T04:38:00.517Z,12.00
2023-05-17T04:40:28.468Z,11.94
2023-05-17T04:42:56.661Z,11.91
2023-05-17T04:45:25.061Z,12.08
2023-05-17T04:47:53.608Z,11.92
2023-05-17T04:50:22.696Z,12.01
2023-05-17T04:52:53.121Z,11.75
2023-05-17T04:55:21.098Z,11.94
2023-05-17T04:57:49.631Z,12.10
2023-05-17T05:00:20.906Z,12.30
2023-05-17T05:02:54.689Z,12.03
2023-05-17T05:05:25.060Z,12.08
2023-05-17T05:07:54.467Z,12.20
2023-05-17T05:10:22.915Z,12.26
2023-05-17T05:12:51.094Z,12.25
2023-05-17T05:15:20.072Z,12.44
2023-05-17T05:17:54.749Z,12.44
2023-05-17T05:20:22.902Z,12.49
2023-05-17T05:22:50.824Z,12.58
2023-05-17T05:25:21.648Z,12.65
2023-05-17T05:27:49.821Z,12.53
2023-05-17T05:30:22.305Z,12.71
2023-05-17T05:32:52.783Z,12.76
2023-05-17T05:35:26.402Z,12.55
2023-05-17T05:37:54.600Z,13.05
2023-05-17T05:40:24.553Z,13.08
2023-05-17T05:42:53.119Z,12.95
2023-05-17T05:45:22.376Z,12.96
2023-05-17T05:47:51.879Z,12.98
2023-05-17T05:50:20.159Z,13.07
2023-05-17T05:52:49.212Z,12.60
2023-05-17T05:55:17.118Z,12.83
2023-05-17T05:57:46.395Z,13.13
2023-05-17T06:00:15.437Z,13.05
2023-05-17T06:02:43.661Z,13.07
2023-05-17T06:05:11.887Z,13.00
2023-05-17T06:07:39.912Z,12.98
2023-05-17T06:10:08.945Z,13.01
2023-05-17T06:12:36.881Z,12.89
2023-05-17T06:15:08.337Z,13.10
2023-05-17T06:17:36.364Z,12.95
2023-05-17T06:20:05.166Z,12.83
2023-05-17T06:22:33.261Z,12.93
2023-05-17T06:25:01.213Z,12.84
2023-05-17T06:27:29.157Z,13.08
2023-05-17T06:29:57.121Z,13.04
2023-05-17T06:32:26.515Z,12.91
2023-05-17T06:34:56.621Z,12.73
2023-05-17T06:37:24.758Z,13.05
2023-05-17T06:40:00.019Z,13.07
2023-05-17T06:42:32.095Z,12.99
2023-05-17T06:45:00.498Z,13.12
2023-05-17T06:47:30.227Z,12.88
2023-05-17T06:49:59.449Z,13.34
2023-05-17T06:52:27.381Z,13.25
2023-05-17T06:54:55.456Z,13.36
2023-05-17T06:57:24.385Z,13.23
2023-05-17T06:59:52.867Z,13.49
2023-05-17T07:02:20.907Z,13.49
2023-05-17T07:04:50.216Z,13.87
2023-05-17T07:07:18.201Z,13.86
2023-05-17T07:09:46.130Z,13.95
2023-05-17T07:12:14.102Z,14.59
2023-05-17T07:14:42.059Z,14.61
2023-05-17T07:17:11.963Z,14.43
2023-05-17T07:19:40.039Z,14.26
2023-05-17T07:22:09.940Z,14.01
2023-05-17T07:24:38.134Z,14.06
2023-05-17T07:27:06.680Z,14.06
2023-05-17T07:29:34.585Z,13.88
2023-05-17T07:32:02.535Z,13.85
2023-05-17T07:34:31.663Z,13.43
2023-05-17T07:36:59.903Z,13.63
2023-05-17T07:39:29.187Z,13.83
2023-05-17T07:41:57.101Z,13.83
2023-05-17T07:44:27.508Z,13.98
2023-05-17T07:46:55.434Z,14.26
2023-05-17T07:49:24.580Z,14.20
2023-05-17T07:51:52.944Z,14.08
2023-05-17T07:54:25.412Z,14.20
2023-05-17T07:56:55.339Z,14.29
2023-05-17T07:59:23.519Z,14.53
2023-05-17T08:01:52.206Z,14.63
2023-05-17T08:04:20.261Z,14.22
2023-05-17T08:06:48.507Z,14.15
2023-05-17T08:09:16.842Z,14.34
2023-05-17T08:11:46.028Z,14.28
2023-05-17T08:14:16.885Z,14.40
2023-05-17T08:16:46.655Z,14.73
2023-05-17T08:19:16.441Z,14.33
2023-05-17T08:21:46.269Z,14.34
2023-05-17T08:24:14.318Z,14.41
2023-05-17T08:26:42.252Z,14.33
2023-05-17T08:29:10.148Z,14.59
2023-05-17T08:31:39.511Z,13.83
2023-05-17T08:34:10.092Z,14.63
2023-05-17T08:36:38.165Z,14.52
2023-05-17T08:39:08.417Z,14.68
2023-05-17T08:41:36.680Z,14.58
2023-05-17T08:44:06.480Z,14.36
2023-05-17T08:46:37.062Z,14.64
2023-05-17T08:49:07.936Z,14.95
2023-05-17T08:51:39.481Z,14.90
2023-05-17T08:54:08.441Z,14.92
2023-05-17T08:56:40.145Z,15.10
2023-05-17T08:59:10.678Z,14.90
2023-05-17T09:01:41.406Z,14.90
2023-05-17T09:04:11.741Z,14.95
2023-05-17T09:06:39.797Z,15.45
2023-05-17T09:09:08.520Z,15.33
2023-05-17T09:11:36.457Z,15.67
2023-05-17T09:14:05.910Z,15.89
2023-05-17T09:16:35.285Z,16.12
2023-05-17T09:19:05.306Z,16.48
2023-05-17T09:21:35.027Z,17.13
2023-05-17T09:24:07.134Z,17.12
2023-05-17T09:26:39.790Z,17.71
2023-05-17T09:29:10.398Z,17.85
2023-05-17T09:31:38.681Z,18.40
2023-05-17T09:34:08.288Z,18.04
2023-05-17T09:36:39.304Z,18.28
2023-05-17T09:39:12.170Z,18.94
2023-05-17T09:41:45.538Z,19.06
2023-05-17T09:44:15.305Z,19.43
2023-05-17T09:46:45.369Z,19.33
2023-05-17T09:49:14.146Z,19.68
2023-05-17T09:51:44.628Z,19.71
2023-05-17T09:54:12.661Z,19.93
2023-05-17T09:56:41.063Z,19.77
2023-05-17T09:59:13.951Z,19.50
2023-05-17T10:01:43.296Z,19.97
2023-05-17T10:04:12.221Z,20.25
2023-05-17T10:09:15.707Z,20.57
2023-05-17T10:11:47.588Z,20.53
2023-05-17T10:14:22.593Z,20.84
2023-05-17T10:16:52.209Z,21.02
2023-05-17T10:19:21.943Z,21.15
2023-05-17T10:21:51.896Z,21.18
2023-05-17T10:24:22.057Z,20.82
2023-05-17T10:26:51.159Z,20.97
2023-05-17T10:29:20.947Z,21.32
2023-05-17T10:31:51.965Z,21.25
2023-05-17T10:34:20.921Z,21.15
2023-05-17T10:36:50.899Z,21.26
2023-05-17T10:39:19.042Z,21.52
2023-05-17T10:41:53.017Z,22.34
2023-05-17T10:44:21.162Z,21.74
2023-05-17T10:46:53.722Z,20.98
2023-05-17T10:49:24.527Z,21.35
2023-05-17T10:51:52.961Z,21.39
2023-05-17T10:54:20.991Z,20.94
2023-05-17T10:56:51.449Z,20.59
2023-05-17T10:59:22.742Z,21.53
2023-05-17T11:01:52.993Z,21.91
2023-05-17T11:04:26.170Z,20.70
2023-05-17T11:06:56.076Z,20.81
2023-05-17T11:09:25.126Z,21.19
2023-05-17T11:12:08.420Z,21.43
2023-05-17T11:14:53.333Z,21.39
2023-05-17T11:17:23.347Z,21.37
2023-05-17T11:19:58.046Z,20.96
2023-05-17T11:22:26.818Z,21.34
2023-05-17T11:24:57.999Z,21.20
2023-05-17T11:27:28.878Z,20.90
2023-05-17T11:29:57.515Z,21.11
2023-05-17T11:32:29.108Z,21.65
2023-05-17T11:35:01.096Z,21.47
2023-05-17T11:37:31.166Z,21.49
2023-05-17T11:40:07.254Z,21.35
2023-05-17T11:42:37.303Z,21.76
2023-05-17T11:45:06.473Z,21.45
2023-05-17T11:47:34.580Z,21.81
2023-05-17T11:50:03.510Z,21.44
2023-05-17T11:52:32.447Z,21.50
2023-05-17T11:55:01.436Z,21.27
2023-05-17T11:57:31.734Z,20.96
2023-05-17T12:00:02.029Z,21.14
2023-05-17T12:02:31.380Z,21.10
2023-05-17T12:05:00.160Z,21.26
2023-05-17T12:07:29.682Z,21.61
2023-05-17T12:09:57.604Z,21.17
2023-05-17T12:12:27.151Z,20.63
2023-05-17T12:14:55.090Z,20.80
2023-05-17T12:17:32.396Z,20.68
2023-05-17T12:20:08.375Z,20.51
2023-05-17T12:22:52.176Z,20.35
2023-05-17T12:25:20.870Z,20.68
2023-05-17T12:27:50.371Z,20.61
2023-05-17T12:30:18.947Z,20.45
2023-05-17T12:32:48.710Z,20.62
2023-05-17T12:35:17.080Z,20.69
2023-05-17T12:37:45.701Z,20.67
2023-05-17T12:40:14.267Z,20.60
2023-05-17T12:42:43.852Z,20.53
2023-05-17T12:45:13.687Z,20.50
2023-05-17T12:47:41.703Z,20.97
2023-05-17T12:50:12.614Z,21.32
2023-05-17T12:52:42.194Z,21.05
2023-05-17T12:55:14.405Z,20.88
2023-05-17T12:57:50.313Z,21.22
2023-05-17T13:00:19.502Z,21.36
2023-05-17T13:02:47.735Z,20.96
2023-05-17T13:05:21.499Z,20.96
2023-05-17T13:07:50.005Z,20.73
2023-05-17T13:10:22.746Z,20.39
2023-05-17T13:12:58.458Z,20.45
2023-05-17T13:15:30.797Z,20.52
2023-05-17T13:17:59.956Z,20.30
2023-05-17T13:20:29.662Z,20.29
2023-05-17T13:22:57.834Z,20.07
2023-05-17T13:25:25.880Z,20.63
2023-05-17T13:27:55.423Z,20.53
2023-05-17T13:30:23.555Z,20.58
2023-05-17T13:32:51.932Z,20.84
2023-05-17T13:35:19.907Z,20.25
2023-05-17T13:37:49.212Z,20.75
2023-05-17T13:40:17.269Z,20.25
2023-05-17T13:42:45.128Z,19.84
2023-05-17T13:45:13.759Z,20.01
2023-05-17T13:47:42.079Z,20.12
2023-05-17T13:50:12.166Z,20.42
2023-05-17T13:52:40.132Z,19.75
2023-05-17T13:55:10.139Z,20.15
2023-05-17T13:57:38.008Z,20.42
2023-05-17T14:00:07.368Z,20.24
2023-05-17T14:02:35.385Z,19.88
2023-05-17T14:05:04.764Z,20.06
2023-05-17T14:07:32.672Z,20.38
2023-05-17T14:10:00.901Z,19.68
2023-05-17T14:12:30.239Z,19.44
2023-05-17T14:14:58.214Z,20.25
2023-05-17T14:17:26.163Z,19.93
2023-05-17T14:19:54.095Z,19.87
2023-05-17T14:22:22.501Z,19.77
2023-05-17T14:24:50.414Z,20.09
2023-05-17T14:27:18.366Z,20.24
2023-05-17T14:29:47.604Z,20.10
2023-05-17T14:32:15.612Z,19.63
2023-05-17T14:34:43.518Z,19.64
2023-05-17T14:37:11.883Z,19.59
2023-05-17T14:39:39.756Z,19.95
2023-05-17T14:42:07.801Z,19.44
2023-05-17T14:44:38.772Z,19.78
2023-05-17T14:47:09.641Z,19.59
2023-05-17T14:49:37.741Z,20.02
2023-05-17T14:52:06.124Z,19.62
2023-05-17T14:54:35.565Z,19.59
2023-05-17T14:57:03.528Z,19.45
2023-05-17T14:59:31.515Z,19.87
2023-05-17T15:02:00.371Z,19.54
2023-05-17T15:04:29.695Z,19.58
2023-05-17T15:06:58.933Z,19.69
2023-05-17T15:09:26.845Z,19.39
2023-05-17T15:11:54.878Z,19.40
2023-05-17T15:14:24.394Z,18.99
2023-05-17T15:16:54.023Z,18.81
2023-05-17T15:19:22.278Z,19.35
2023-05-17T15:21:51.894Z,19.29
2023-05-17T15:24:19.812Z,19.83
2023-05-17T15:26:47.868Z,20.14
2023-05-17T15:29:16.039Z,19.91
2023-05-17T15:31:44.043Z,19.90
2023-05-17T15:34:12.092Z,19.93
2023-05-17T15:36:40.385Z,20.32
2023-05-17T15:39:10.500Z,20.46
2023-05-17T15:41:39.775Z,20.10
2023-05-17T15:44:08.992Z,19.62
2023-05-17T15:46:36.937Z,19.63
2023-05-17T15:49:04.961Z,19.56
2023-05-17T15:51:32.878Z,19.78
2023-05-17T15:54:00.807Z,19.91
2023-05-17T15:56:30.237Z,19.97
2023-05-17T15:58:58.712Z,20.01
2023-05-17T16:01:27.737Z,19.98
2023-05-17T16:03:55.913Z,19.73
2023-05-17T16:06:23.787Z,19.61
2023-05-17T16:08:51.688Z,19.53
2023-05-17T16:11:19.571Z,19.50
2023-05-17T16:13:48.920Z,19.51
2023-05-17T16:16:16.859Z,19.51
2023-05-17T16:18:44.967Z,19.34
2023-05-17T16:21:13.560Z,18.98
2023-05-17T16:23:41.544Z,19.04
2023-05-17T16:26:09.864Z,18.83
2023-05-17T16:28:37.876Z,19.03
2023-05-17T16:31:07.315Z,19.00
2023-05-17T16:33:35.630Z,19.03
2023-05-17T16:36:04.453Z,18.94
2023-05-17T16:38:32.362Z,19.08
2023-05-17T16:41:03.072Z,18.98
2023-05-17T16:43:31.210Z,19.19
2023-05-17T16:45:59.198Z,19.00
2023-05-17T16:48:28.709Z,19.15
2023-05-17T16:50:58.278Z,19.17
2023-05-17T16:53:28.128Z,19.48
2023-05-17T16:55:56.180Z,19.03
2023-05-17T16:58:24.063Z,18.93
2023-05-17T17:00:53.001Z,18.99
2023-05-17T17:03:21.047Z,18.76
2023-05-17T17:05:50.386Z,18.36
2023-05-17T17:08:18.339Z,18.75
2023-05-17T17:10:46.264Z,18.70
2023-05-17T17:13:15.032Z,18.66
2023-05-17T17:15:42.998Z,18.35
2023-05-17T17:18:11.381Z,18.19
2023-05-17T17:20:39.321Z,18.32
2023-05-17T17:23:08.626Z,18.17
2023-05-17T17:25:36.525Z,18.58
2023-05-17T17:28:04.510Z,18.25
2023-05-17T17:30:33.138Z,18.14
2023-05-17T17:33:01.428Z,18.18
2023-05-17T17:35:29.396Z,18.18
2023-05-17T17:37:57.330Z,18.16
2023-05-17T17:40:27.509Z,18.05
2023-05-17T17:42:55.490Z,17.65
2023-05-17T17:45:23.700Z,18.00
2023-05-17T17:47:51.844Z,17.87
2023-05-17T17:50:19.913Z,17.82
2023-05-17T17:52:48.065Z,17.83
2023-05-17T17:55:16.073Z,17.95
2023-05-17T17:57:45.675Z,17.60
2023-05-17T18:00:16.044Z,17.94
2023-05-17T18:02:44.135Z,17.74
2023-05-17T18:05:12.600Z,17.67
2023-05-17T18:07:40.887Z,17.41
2023-05-17T18:10:09.348Z,17.02
2023-05-17T18:12:37.317Z,17.21
2023-05-17T18:15:07.558Z,17.08
2023-05-17T18:17:35.562Z,17.34
2023-05-17T18:20:03.549Z,17.02
2023-05-17T18:22:31.400Z,17.34
2023-05-17T18:24:59.534Z,17.34
2023-05-17T18:27:27.507Z,16.93
2023-05-17T18:29:55.449Z,17.00
2023-05-17T18:32:24.850Z,16.79
2023-05-17T18:34:53.152Z,16.93
2023-05-17T18:37:21.029Z,16.92
2023-05-17T18:39:48.958Z,16.68
2023-05-17T18:42:16.901Z,16.61
2023-05-17T18:44:44.839Z,16.64
2023-05-17T18:47:12.779Z,16.41
2023-05-17T18:49:46.440Z,16.24
2023-05-17T18:52:14.567Z,16.42
2023-05-17T18:54:42.491Z,16.53
2023-05-17T18:57:11.920Z,16.09
2023-05-17T18:59:39.939Z,16.03
2023-05-17T19:02:08.948Z,16.21
2023-05-17T19:04:37.416Z,16.24
2023-05-17T19:07:06.950Z,15.94
2023-05-17T19:09:34.864Z,15.78
2023-05-17T19:12:02.789Z,15.65
2023-05-17T19:14:32.053Z,16.00
2023-05-17T19:17:00.233Z,15.88
2023-05-17T19:19:28.362Z,16.14
2023-05-17T19:21:56.466Z,16.02
2023-05-17T19:24:26.054Z,15.74
2023-05-17T19:26:53.983Z,15.82
2023-05-17T19:29:22.320Z,15.88
2023-05-17T19:31:50.511Z,15.95
2023-05-17T19:34:18.629Z,15.96
2023-05-17T19:36:46.560Z,15.70
2023-05-17T19:39:14.969Z,15.88
2023-05-17T19:41:44.302Z,16.07
2023-05-17T19:44:12.680Z,15.80
2023-05-17T19:46:40.653Z,15.66
2023-05-17T19:49:08.765Z,15.70
2023-05-17T19:51:36.827Z,15.31
2023-05-17T19:54:05.109Z,15.47
2023-05-17T19:56:33.029Z,15.36
2023-05-17T19:59:03.792Z,15.20
2023-05-17T20:01:31.832Z,15.33
2023-05-17T20:03:59.966Z,15.58
2023-05-17T20:06:28.052Z,15.34
2023-05-17T20:08:56.098Z,15.42
2023-05-17T20:11:23.999Z,15.29
2023-05-17T20:13:51.979Z,14.97
2023-05-17T20:16:21.376Z,15.31
2023-05-17T20:18:49.513Z,15.19
2023-05-17T20:21:19.594Z,14.99
2023-05-17T20:23:47.933Z,14.99
2023-05-17T20:26:19.021Z,15.20
2023-05-17T20:28:47.073Z,15.15
2023-05-17T20:31:14.957Z,15.13
2023-05-17T20:33:44.546Z,14.95
2023-05-17T20:36:14.489Z,15.03
2023-05-17T20:38:43.504Z,15.10
2023-05-17T20:41:11.692Z,14.95
2023-05-17T20:43:39.721Z,14.85
2023-05-17T20:46:09.405Z,14.79
2023-05-17T20:48:38.894Z,15.02
2023-05-17T20:51:08.258Z,14.92
2023-05-17T20:53:36.259Z,14.74
2023-05-17T20:56:04.259Z,14.77
2023-05-17T20:58:32.225Z,14.82
2023-05-17T21:01:01.186Z,14.82
2023-05-17T21:03:33.878Z,14.60
2023-05-17T21:06:05.063Z,14.65
2023-05-17T21:08:34.927Z,14.72
2023-05-17T21:11:02.846Z,14.73
2023-05-17T21:13:31.061Z,14.69
2023-05-17T21:15:59.107Z,14.54
2023-05-17T21:18:27.157Z,14.71
2023-05-17T21:20:55.215Z,14.85
2023-05-17T21:23:23.261Z,14.56
2023-05-17T21:25:52.926Z,14.58
2023-05-17T21:28:20.980Z,14.62
2023-05-17T21:30:49.246Z,14.68
2023-05-17T21:33:17.312Z,14.63
2023-05-17T21:35:45.418Z,14.64
2023-05-17T21:38:13.795Z,14.73
2023-05-17T21:40:42.126Z,14.54
2023-05-17T21:43:11.764Z,14.65
2023-05-17T21:45:39.977Z,14.53
2023-05-17T21:48:08.167Z,14.43
2023-05-17T21:50:36.208Z,14.51
2023-05-17T21:53:04.174Z,14.25
2023-05-17T21:55:36.977Z,14.20
2023-05-17T21:58:16.397Z,14.42
2023-05-17T22:00:44.406Z,14.46
2023-05-17T22:03:12.582Z,14.34
2023-05-17T22:05:40.889Z,14.39
2023-05-17T22:08:08.832Z,14.21
2023-05-17T22:10:37.102Z,14.22
2023-05-17T22:13:06.107Z,14.28
2023-05-17T22:15:36.247Z,13.99
2023-05-17T22:18:05.167Z,13.84
2023-05-17T22:20:33.540Z,13.94
2023-05-17T22:23:01.587Z,14.16
2023-05-17T22:25:29.693Z,14.02
2023-05-17T22:27:57.602Z,13.99
2023-05-17T22:30:25.596Z,13.98
2023-05-17T22:32:57.220Z,13.89
2023-05-17T22:35:25.672Z,14.06
2023-05-17T22:37:53.751Z,13.68
2023-05-17T22:40:22.303Z,13.78
2023-05-17T22:42:51.843Z,13.71
2023-05-17T22:45:19.806Z,13.77
2023-05-17T22:47:47.843Z,13.54
2023-05-17T22:50:19.106Z,13.60
2023-05-17T22:52:47.215Z,13.76
2023-05-17T22:55:15.136Z,13.65
2023-05-17T22:57:43.037Z,13.53
2023-05-17T23:00:12.026Z,13.71
2023-05-17T23:02:40.016Z,13.27
2023-05-17T23:05:08.514Z,13.62
2023-05-17T23:07:38.340Z,13.46
2023-05-17T23:10:07.400Z,13.34
2023-05-17T23:12:36.512Z,13.35
2023-05-17T23:15:05.158Z,13.26
2023-05-17T23:17:33.722Z,13.23
2023-05-17T23:20:07.071Z,13.36
2023-05-17T23:22:35.080Z,13.43
2023-05-17T23:25:05.939Z,13.51
2023-05-17T23:27:35.299Z,13.47
2023-05-17T23:30:04.513Z,13.41
2023-05-17T23:32:33.973Z,13.17
2023-05-17T23:35:04.115Z,13.17
2023-05-17T23:37:32.331Z,13.43
2023-05-17T23:40:01.100Z,13.47
2023-05-17T23:42:30.480Z,13.13
2023-05-17T23:44:58.735Z,13.25
2023-05-17T23:47:28.071Z,13.34
2023-05-17T23:49:56.399Z,13.11
2023-05-17T23:52:24.440Z,12.73
2023-05-17T23:54:57.222Z,13.13
2023-05-17T23:57:25.749Z,13.11
2023-05-17T23:59:55.072Z,12.90
